Time;durP1;ratioP1;P1;durP2;ratioP2;P2;SDS_P1;SDS_P2;PMS_P1;PMS_P2;Temp;Humidity;BMP_temperature;BMP_pressure;BME280_temperature;BME280_humidity;BME280_pressure;Samples;Min_cycle;Max_cycle;Signal;HPM_P1;HPM_P2
2020/12/22 00:02:15;;;;;;;37.05;22.70;;;5.50;88.90;;;;;;5087005;28;20181;-84
2020/12/22 00:04:49;;;;;;;32.10;20.90;;;5.50;89.40;;;;;;5087864;28;20547;-85
2020/12/22 00:07:15;;;;;;;30.85;20.58;;;5.50;89.50;;;;;;5087776;28;20204;-85
2020/12/22 00:09:43;;;;;;;31.77;20.57;;;5.40;89.80;;;;;;5088317;28;20667;-85
2020/12/22 00:12:18;;;;;;;32.00;21.20;;;5.40;89.90;;;;;;5088449;28;20675;-85
2020/12/22 00:14:44;;;;;;;31.55;19.60;;;5.40;90.20;;;;;;5088216;28;20253;-85
2020/12/22 00:17:16;;;;;;;32.33;20.90;;;5.30;90.20;;;;;;5086490;28;20230;-85
2020/12/22 00:19:41;;;;;;;33.38;21.92;;;5.30;90.30;;;;;;5088119;28;20409;-85
2020/12/22 00:22:07;;;;;;;35.57;22.97;;;5.30;90.40;;;;;;5088457;28;20172;-85
2020/12/22 00:24:36;;;;;;;32.80;20.90;;;5.20;90.50;;;;;;5087156;28;20176;-85
2020/12/22 00:27:07;;;;;;;32.53;20.10;;;5.20;90.40;;;;;;5088094;28;20180;-85
2020/12/22 00:29:39;;;;;;;36.08;21.42;;;5.10;90.70;;;;;;5087614;28;20180;-85
2020/12/22 00:32:13;;;;;;;31.33;20.45;;;5.00;90.80;;;;;;5087941;28;20208;-85
2020/12/22 00:34:45;;;;;;;31.67;21.15;;;5.10;90.80;;;;;;5088146;28;20233;-85
2020/12/22 00:37:11;;;;;;;34.00;21.50;;;5.00;90.90;;;;;;5088057;28;20184;-85
2020/12/22 00:39:40;;;;;;;32.20;21.23;;;5.00;91.00;;;;;;5086924;28;20934;-85
2020/12/22 00:42:05;;;;;;;33.47;20.73;;;5.00;91.00;;;;;;5087764;28;20648;-85
2020/12/22 00:44:31;;;;;;;33.07;20.17;;;5.00;91.10;;;;;;5087514;28;20263;-85
2020/12/22 00:46:59;;;;;;;31.20;20.73;;;4.90;91.10;;;;;;5106099;28;20492;-85
2020/12/22 00:49:24;;;;;;;36.65;20.83;;;4.90;91.10;;;;;;5108051;28;20171;-84
2020/12/22 00:51:50;;;;;;;30.03;20.70;;;4.90;91.30;;;;;;5106918;28;20252;-85
2020/12/22 00:54:21;;;;;;;35.70;21.83;;;5.00;91.20;;;;;;5107472;28;20227;-85
2020/12/22 00:56:47;;;;;;;31.70;21.23;;;5.00;91.20;;;;;;5106992;28;20172;-85
2020/12/22 00:59:13;;;;;;;30.08;19.77;;;5.00;91.30;;;;;;5106432;28;20191;-85
2020/12/22 01:02:17;;;;;;;30.73;20.17;;;5.00;91.50;;;;;;5108219;28;20172;-85
2020/12/22 01:04:47;;;;;;;35.83;20.02;;;5.00;91.30;;;;;;5106587;28;20691;-85
2020/12/22 01:07:16;;;;;;;35.30;20.40;;;5.10;90.90;;;;;;5107726;28;20176;-85
2020/12/22 01:09:50;;;;;;;27.75;19.08;;;5.10;90.90;;;;;;5107849;28;20180;-85
2020/12/22 01:12:16;;;;;;;30.75;19.65;;;5.00;91.00;;;;;;5106786;28;20254;-85
2020/12/22 01:14:44;;;;;;;32.73;19.37;;;4.90;90.90;;;;;;5106001;28;20322;-85
2020/12/22 01:17:10;;;;;;;30.13;20.58;;;4.90;91.10;;;;;;5107929;28;20182;-85
2020/12/22 01:19:39;;;;;;;29.53;20.27;;;4.90;91.10;;;;;;5105556;28;20593;-85
2020/12/22 01:22:04;;;;;;;33.22;21.73;;;4.90;91.00;;;;;;5107645;28;20175;-85
2020/12/22 01:24:36;;;;;;;30.27;19.70;;;4.80;91.10;;;;;;5108115;28;20522;-85
2020/12/22 01:27:10;;;;;;;29.50;20.60;;;4.80;91.30;;;;;;5106143;28;20271;-85
2020/12/22 01:29:36;;;;;;;32.35;20.98;;;4.80;91.10;;;;;;5106971;28;20191;-85
2020/12/22 01:32:07;;;;;;;29.77;20.60;;;4.70;91.30;;;;;;5107331;28;20187;-84
2020/12/22 01:34:36;;;;;;;32.80;21.20;;;4.70;91.40;;;;;;5105469;28;20219;-85
2020/12/22 01:37:14;;;;;;;29.58;21.20;;;4.60;91.90;;;;;;5107945;28;20611;-85
2020/12/22 01:39:39;;;;;;;35.35;22.10;;;4.60;91.50;;;;;;5107075;28;20259;-85
2020/12/22 01:42:09;;;;;;;35.57;22.47;;;4.50;91.80;;;;;;5106132;28;20598;-85
2020/12/22 01:44:38;;;;;;;35.92;25.33;;;4.40;91.90;;;;;;5104301;28;20188;-85
2020/12/22 01:47:04;;;;;;;32.53;21.70;;;4.40;91.80;;;;;;5106356;28;20222;-85
2020/12/22 01:49:35;;;;;;;30.17;20.47;;;4.40;92.10;;;;;;5106526;28;20188;-84
2020/12/22 01:52:05;;;;;;;39.33;22.95;;;4.40;92.20;;;;;;5107364;28;20298;-85
2020/12/22 01:54:36;;;;;;;34.63;21.35;;;4.40;92.20;;;;;;5106563;28;20196;-85
2020/12/22 01:57:10;;;;;;;36.42;21.30;;;4.40;92.20;;;;;;5105527;28;20639;-85
2020/12/22 01:59:35;;;;;;;34.22;21.30;;;4.40;92.40;;;;;;5107734;28;20673;-85
2020/12/22 02:02:01;;;;;;;35.80;21.47;;;4.40;92.30;;;;;;5106014;28;20168;-85
2020/12/22 02:04:30;;;;;;;36.03;23.30;;;4.40;92.40;;;;;;5106862;28;20305;-85
2020/12/22 02:07:02;;;;;;;30.98;21.20;;;4.30;92.70;;;;;;5106856;28;20255;-84
2020/12/22 02:09:31;;;;;;;33.17;21.38;;;4.40;92.30;;;;;;5107175;28;20183;-85
2020/12/22 02:11:56;;;;;;;31.60;22.10;;;4.40;92.40;;;;;;5111664;28;20259;-85
2020/12/22 02:14:25;;;;;;;35.90;23.10;;;4.30;92.40;;;;;;5109711;28;20218;-85
2020/12/22 02:16:56;;;;;;;31.42;22.05;;;4.40;92.40;;;;;;5108805;28;20180;-85
2020/12/22 02:19:23;;;;;;;33.28;23.42;;;4.40;92.30;;;;;;5110874;28;20188;-85
2020/12/22 02:21:54;;;;;;;32.97;21.77;;;4.30;92.40;;;;;;5110812;28;20258;-85
2020/12/22 02:24:20;;;;;;;33.28;22.05;;;4.30;92.30;;;;;;5110514;28;20176;-84
2020/12/22 02:26:49;;;;;;;34.03;22.55;;;4.20;92.90;;;;;;5110810;28;20176;-85
2020/12/22 02:29:20;;;;;;;30.38;20.88;;;4.20;92.60;;;;;;5110780;28;20184;-85
2020/12/22 02:31:46;;;;;;;31.90;21.13;;;4.20;93.00;;;;;;5110990;28;20632;-85
2020/12/22 02:34:11;;;;;;;33.00;21.03;;;4.20;92.60;;;;;;5107756;28;20215;-85
2020/12/22 02:36:37;;;;;;;30.70;21.00;;;4.00;93.30;;;;;;5108812;28;20175;-85
2020/12/22 02:39:04;;;;;;;32.03;22.33;;;4.20;92.60;;;;;;5111108;28;20182;-85
2020/12/22 02:41:29;;;;;;;27.63;19.88;;;4.20;92.70;;;;;;5109040;28;20185;-85
2020/12/22 02:43:58;;;;;;;30.53;21.97;;;4.10;92.90;;;;;;5110196;28;20674;-85
2020/12/22 02:46:29;;;;;;;28.17;20.50;;;4.10;92.70;;;;;;5109944;28;20644;-85
2020/12/22 02:48:55;;;;;;;26.38;19.10;;;4.10;92.80;;;;;;5109496;28;20184;-85
2020/12/22 02:51:26;;;;;;;32.97;22.57;;;4.00;93.20;;;;;;5108301;28;20238;-86
2020/12/22 02:53:54;;;;;;;29.05;20.00;;;4.00;93.30;;;;;;5109158;28;20651;-85
2020/12/22 02:56:26;;;;;;;38.38;21.60;;;4.00;93.50;;;;;;5110010;27;20176;-85
2020/12/22 02:58:52;;;;;;;38.10;22.23;;;4.10;93.00;;;;;;5109058;28;20195;-86
2020/12/22 03:01:18;;;;;;;33.73;22.10;;;4.00;93.30;;;;;;5110811;28;20181;-86
2020/12/22 03:03:44;;;;;;;30.80;20.52;;;4.10;93.10;;;;;;5110273;28;20184;-85
2020/12/22 03:06:10;;;;;;;34.45;22.98;;;4.00;93.10;;;;;;5108912;28;20647;-85
2020/12/22 03:08:39;;;;;;;31.20;20.27;;;4.00;93.30;;;;;;5108084;28;20218;-85
2020/12/22 03:11:04;;;;;;;33.58;22.20;;;4.00;93.30;;;;;;5108377;28;20644;-86
2020/12/22 03:13:30;;;;;;;32.97;20.67;;;4.00;93.40;;;;;;5110187;28;20261;-85
2020/12/22 03:15:56;;;;;;;31.37;20.47;;;4.00;93.30;;;;;;5110026;28;20542;-85
2020/12/22 03:18:22;;;;;;;27.60;18.17;;;4.10;93.20;;;;;;5109834;28;20417;-85
2020/12/22 03:20:50;;;;;;;34.40;20.57;;;4.00;93.30;;;;;;5109330;28;20246;-85
2020/12/22 03:23:19;;;;;;;31.13;20.70;;;4.00;93.40;;;;;;5109619;28;20176;-85
2020/12/22 03:25:47;;;;;;;32.58;22.05;;;4.10;93.30;;;;;;5108363;28;20207;-85
2020/12/22 03:28:19;;;;;;;28.50;16.98;;;4.00;93.00;;;;;;5108132;28;20237;-84
2020/12/22 03:30:47;;;;;;;29.48;22.58;;;3.90;93.40;;;;;;5109478;28;20587;-85
2020/12/22 03:33:13;;;;;;;28.88;18.40;;;4.00;93.20;;;;;;5107912;28;20184;-85
2020/12/22 03:35:38;;;;;;;30.07;21.07;;;4.00;93.10;;;;;;5109353;27;20232;-85
2020/12/22 03:38:10;;;;;;;26.10;17.60;;;4.00;93.10;;;;;;5108561;28;20220;-85
2020/12/22 03:40:38;;;;;;;30.63;19.65;;;3.90;93.70;;;;;;5107616;28;20175;-85
2020/12/22 03:43:10;;;;;;;27.50;18.45;;;3.90;93.60;;;;;;5108013;28;20227;-85
2020/12/22 03:45:44;;;;;;;31.55;19.88;;;4.00;93.60;;;;;;5108963;28;20172;-85
2020/12/22 03:48:10;;;;;;;27.67;19.25;;;4.10;93.50;;;;;;5107827;28;20227;-85
2020/12/22 03:50:36;;;;;;;29.83;19.37;;;4.00;93.30;;;;;;5108599;28;20264;-85
2020/12/22 03:53:04;;;;;;;25.43;17.40;;;4.10;93.10;;;;;;5110076;28;20203;-85
2020/12/22 03:55:30;;;;;;;27.02;18.40;;;4.10;93.00;;;;;;5107872;28;20204;-85
2020/12/22 03:57:58;;;;;;;28.40;19.97;;;4.00;93.40;;;;;;5108988;28;21075;-85
2020/12/22 04:00:30;;;;;;;28.50;18.73;;;4.10;92.80;;;;;;5107659;28;20188;-85
2020/12/22 04:02:55;;;;;;;27.15;20.30;;;4.10;92.90;;;;;;5107990;28;20176;-86
2020/12/22 04:05:23;;;;;;;27.23;18.20;;;4.00;93.00;;;;;;5109328;28;20195;-85
2020/12/22 04:07:48;;;;;;;29.48;19.40;;;4.10;92.90;;;;;;5108670;28;20180;-85
2020/12/22 04:10:20;;;;;;;27.90;19.30;;;4.00;93.10;;;;;;5107877;28;20192;-85
2020/12/22 04:12:48;;;;;;;24.30;16.75;;;4.00;93.30;;;;;;5107292;28;20635;-85
2020/12/22 04:15:17;;;;;;;31.45;19.45;;;4.00;93.40;;;;;;5108781;28;20204;-85
2020/12/22 04:17:42;;;;;;;27.23;16.92;;;4.10;93.40;;;;;;5107736;28;20271;-85
2020/12/22 04:20:08;;;;;;;30.43;17.53;;;4.10;93.10;;;;;;5108429;28;20266;-85
2020/12/22 04:22:33;;;;;;;26.23;18.90;;;4.10;93.30;;;;;;5107585;28;20207;-85
2020/12/22 04:25:06;;;;;;;24.43;16.53;;;4.20;92.90;;;;;;5108617;27;20211;-85
2020/12/22 04:27:32;;;;;;;24.63;17.52;;;4.20;92.70;;;;;;5106347;28;20585;-86
2020/12/22 04:30:00;;;;;;;26.10;17.60;;;4.20;92.50;;;;;;5108537;28;20237;-85
2020/12/22 04:32:26;;;;;;;28.38;18.38;;;4.10;92.80;;;;;;5107170;28;20191;-85
2020/12/22 04:34:54;;;;;;;24.87;17.73;;;4.20;92.70;;;;;;5107987;28;20204;-85
2020/12/22 04:37:19;;;;;;;26.50;18.38;;;4.30;91.90;;;;;;5108132;28;20168;-84
2020/12/22 04:39:53;;;;;;;25.10;17.63;;;4.30;92.20;;;;;;5108494;28;20210;-85
2020/12/22 04:42:32;;;;;;;22.80;16.13;;;4.20;92.10;;;;;;5106091;28;20519;-84
2020/12/22 04:44:58;;;;;;;23.92;16.60;;;4.10;92.60;;;;;;5107126;28;20273;-85
2020/12/22 04:47:30;;;;;;;24.33;15.73;;;4.10;92.40;;;;;;5106816;28;20211;-85
2020/12/22 04:50:06;;;;;;;26.58;17.77;;;4.10;92.60;;;;;;5107001;28;20203;-85
2020/12/22 04:52:37;;;;;;;23.90;17.05;;;4.20;92.30;;;;;;5106866;28;20234;-85
2020/12/22 04:55:03;;;;;;;21.67;15.52;;;4.20;92.10;;;;;;5107009;28;20572;-85
2020/12/22 04:57:36;;;;;;;26.13;17.27;;;4.10;92.10;;;;;;5107628;28;20175;-85
2020/12/22 05:00:04;;;;;;;21.80;15.07;;;4.10;92.10;;;;;;5105236;28;20271;-84
2020/12/22 05:02:36;;;;;;;23.73;15.70;;;4.10;92.00;;;;;;5106277;28;20216;-85
2020/12/22 05:05:02;;;;;;;25.15;15.80;;;4.10;92.10;;;;;;5108082;28;20561;-85
2020/12/22 05:07:30;;;;;;;24.65;14.77;;;4.10;92.00;;;;;;5108225;28;20179;-85
2020/12/22 05:09:56;;;;;;;24.60;16.35;;;4.00;92.30;;;;;;5106402;28;20215;-85
2020/12/22 05:12:21;;;;;;;22.67;15.60;;;4.10;91.90;;;;;;5106680;28;20666;-85
2020/12/22 05:14:47;;;;;;;26.40;17.00;;;4.10;92.10;;;;;;5107133;28;20228;-85
2020/12/22 05:17:13;;;;;;;22.33;16.00;;;4.00;92.70;;;;;;5105141;28;20232;-85
2020/12/22 05:19:41;;;;;;;27.92;17.08;;;4.00;92.30;;;;;;5105859;28;20212;-85
2020/12/22 05:22:07;;;;;;;20.95;15.23;;;4.00;92.10;;;;;;5107473;28;20254;-86
2020/12/22 05:24:36;;;;;;;22.20;17.20;;;3.90;92.30;;;;;;5105494;28;20338;-85
2020/12/22 05:27:02;;;;;;;23.52;17.08;;;4.00;91.90;;;;;;5107053;28;20176;-86
2020/12/22 05:29:32;;;;;;;19.98;14.48;;;4.00;91.70;;;;;;5107619;28;20647;-85
2020/12/22 05:31:58;;;;;;;25.00;15.95;;;4.10;91.60;;;;;;5106828;28;20187;-85
2020/12/22 05:34:27;;;;;;;21.50;15.57;;;4.00;91.80;;;;;;5107069;28;20211;-85
2020/12/22 05:37:02;;;;;;;27.13;15.82;;;3.90;91.90;;;;;;5105693;28;20777;-85
2020/12/22 05:39:27;;;;;;;20.85;13.63;;;4.00;91.90;;;;;;5106937;28;20214;-84
2020/12/22 05:42:10;;;;;;;25.60;16.80;;;3.90;92.40;;;;;;5107504;28;20608;-86
2020/12/22 05:44:49;;;;;;;20.08;13.48;;;4.20;91.30;;;;;;5107269;28;20682;-85
2020/12/22 05:47:16;;;;;;;23.45;15.70;;;4.10;91.40;;;;;;5111766;28;20252;-85
2020/12/22 05:49:59;;;;;;;21.88;13.48;;;4.30;91.00;;;;;;5110475;28;20179;-86
2020/12/22 05:52:29;;;;;;;23.02;14.57;;;4.30;91.50;;;;;;5090739;28;20228;-85
2020/12/22 05:54:57;;;;;;;24.30;14.88;;;4.20;91.10;;;;;;5089693;28;20706;-86
2020/12/22 05:57:27;;;;;;;23.15;15.45;;;4.20;91.20;;;;;;5091489;28;20179;-85
2020/12/22 05:59:53;;;;;;;20.77;14.75;;;4.30;90.40;;;;;;5089444;28;20187;-86
2020/12/22 06:02:30;;;;;;;20.27;13.88;;;4.30;90.30;;;;;;5089738;28;20192;-85
2020/12/22 06:04:58;;;;;;;23.27;14.13;;;4.20;90.80;;;;;;5090557;28;20176;-85
2020/12/22 06:07:24;;;;;;;23.92;15.10;;;4.20;91.00;;;;;;5091994;28;20180;-85
2020/12/22 06:09:57;;;;;;;29.65;19.73;;;4.10;91.40;;;;;;5091196;28;20169;-85
2020/12/22 06:12:24;;;;;;;25.02;16.45;;;4.20;90.90;;;;;;5090142;28;20625;-85
2020/12/22 06:14:54;;;;;;;18.95;14.55;;;4.10;91.30;;;;;;5089366;28;20208;-86
2020/12/22 06:17:20;;;;;;;21.98;15.27;;;4.00;91.10;;;;;;5090997;28;20197;-85
2020/12/22 06:19:47;;;;;;;25.80;16.42;;;3.90;91.50;;;;;;5090304;28;20180;-86
2020/12/22 06:22:17;;;;;;;20.58;15.63;;;4.00;91.50;;;;;;5089930;28;20177;-85
2020/12/22 06:24:54;;;;;;;22.15;14.57;;;3.80;91.60;;;;;;5090026;28;20172;-85
2020/12/22 06:27:20;;;;;;;21.90;16.70;;;3.90;91.30;;;;;;5090348;28;20172;-84
2020/12/22 06:29:51;;;;;;;19.73;13.83;;;3.90;91.30;;;;;;5089762;28;20200;-85
2020/12/22 06:32:26;;;;;;;21.33;15.55;;;3.90;91.30;;;;;;5090390;28;20246;-85
2020/12/22 06:35:04;;;;;;;22.15;15.13;;;3.90;91.50;;;;;;5089906;28;20243;-86
2020/12/22 06:37:44;;;;;;;20.50;13.48;;;4.00;91.00;;;;;;5088826;28;20241;-85
2020/12/22 06:40:13;;;;;;;22.08;14.50;;;3.90;91.30;;;;;;5089874;28;20179;-85
2020/12/22 06:42:50;;;;;;;21.20;14.32;;;4.00;91.30;;;;;;5088451;28;20195;-86
2020/12/22 06:45:29;;;;;;;21.38;15.38;;;4.00;90.90;;;;;;5094808;28;20187;-86
2020/12/22 06:48:01;;;;;;;21.70;14.93;;;3.90;91.20;;;;;;5110190;28;20187;-86
2020/12/22 06:50:52;;;;;;;23.17;15.00;;;3.90;91.20;;;;;;5110366;28;20187;-84
2020/12/22 06:53:41;;;;;;;24.98;14.77;;;4.10;91.10;;;;;;5110211;28;20171;-84
2020/12/22 06:56:07;;;;;;;24.73;16.25;;;4.10;91.20;;;;;;5109972;28;20549;-84
2020/12/22 06:58:37;;;;;;;28.37;19.57;;;4.10;91.20;;;;;;5110438;28;20180;-85
2020/12/22 07:01:28;;;;;;;25.77;16.60;;;4.10;90.70;;;;;;5110220;28;20172;-84
2020/12/22 07:04:19;;;;;;;21.77;16.13;;;4.00;90.80;;;;;;5110204;28;20936;-84
2020/12/22 07:06:50;;;;;;;25.25;18.40;;;4.00;90.80;;;;;;5109678;28;20254;-84
2020/12/22 07:09:39;;;;;;;26.60;17.10;;;3.90;90.90;;;;;;5108857;28;20179;-84
2020/12/22 07:12:19;;;;;;;26.48;18.45;;;4.00;91.00;;;;;;5109706;28;20538;-84
2020/12/22 07:14:49;;;;;;;22.80;17.58;;;4.10;90.70;;;;;;5109550;28;20203;-84
2020/12/22 07:17:18;;;;;;;22.75;15.95;;;4.00;90.80;;;;;;5108708;28;20225;-85
2020/12/22 07:19:46;;;;;;;22.77;15.23;;;4.10;90.90;;;;;;5102520;28;20557;-85
2020/12/22 07:22:14;;;;;;;21.60;15.27;;;4.20;90.70;;;;;;5107661;28;20187;-85
2020/12/22 07:24:40;;;;;;;21.00;15.88;;;4.20;90.50;;;;;;5109703;28;20179;-86
2020/12/22 07:27:12;;;;;;;24.02;15.77;;;4.20;90.50;;;;;;5095788;28;20195;-86
2020/12/22 07:29:41;;;;;;;24.80;14.85;;;4.30;90.40;;;;;;5093116;28;20589;-85
2020/12/22 07:32:08;;;;;;;20.77;16.05;;;4.30;90.50;;;;;;5109578;28;20199;-87
2020/12/22 07:34:38;;;;;;;24.33;14.32;;;4.30;90.20;;;;;;5108969;28;20215;-86
2020/12/22 07:37:14;;;;;;;20.65;14.40;;;4.30;90.00;;;;;;5107812;28;20207;-86
2020/12/22 07:39:51;;;;;;;23.17;15.40;;;4.30;90.30;;;;;;5108992;28;20206;-86
2020/12/22 07:42:21;;;;;;;21.83;14.85;;;4.30;90.60;;;;;;5108619;28;20313;-86
2020/12/22 07:44:50;;;;;;;23.75;16.10;;;4.40;90.00;;;;;;5100175;28;20197;-87
2020/12/22 07:47:16;;;;;;;22.67;14.68;;;4.40;90.00;;;;;;5108207;28;20265;-86
2020/12/22 07:49:47;;;;;;;20.40;15.50;;;4.40;89.50;;;;;;5106422;28;20618;-86
2020/12/22 07:52:21;;;;;;;18.90;12.57;;;4.40;89.60;;;;;;5107634;28;20223;-86
2020/12/22 07:54:59;;;;;;;21.73;13.10;;;4.30;90.40;;;;;;5097133;28;20220;-85
2020/12/22 07:57:29;;;;;;;20.55;14.65;;;4.30;90.30;;;;;;5090362;28;20164;-86
2020/12/22 08:00:06;;;;;;;23.67;15.55;;;4.30;90.30;;;;;;5098539;28;20191;-87
2020/12/22 08:02:35;;;;;;;22.00;15.63;;;4.30;90.00;;;;;;5100744;28;20219;-85
2020/12/22 08:05:30;;;;;;;19.75;14.50;;;4.40;89.30;;;;;;5095451;27;20208;-86
2020/12/22 08:07:55;;;;;;;20.05;14.20;;;4.40;90.20;;;;;;5084224;28;20253;-86
2020/12/22 08:10:27;;;;;;;24.30;17.20;;;4.40;90.00;;;;;;5104651;28;20196;-85
2020/12/22 08:13:00;;;;;;;24.92;16.02;;;4.40;89.70;;;;;;5107175;28;20168;-86
2020/12/22 08:15:26;;;;;;;29.25;18.35;;;4.20;90.30;;;;;;5090252;28;20220;-86
2020/12/22 08:17:56;;;;;;;25.27;17.30;;;4.20;89.30;;;;;;5094202;28;20191;-86
2020/12/22 08:20:28;;;;;;;24.35;18.48;;;4.20;90.40;;;;;;5089625;28;20595;-86
2020/12/22 08:22:57;;;;;;;26.10;19.33;;;4.30;89.70;;;;;;5087244;28;20712;-86
2020/12/22 08:25:28;;;;;;;25.85;16.92;;;4.30;87.60;;;;;;5086963;28;20195;-86
2020/12/22 08:27:57;;;;;;;25.45;17.90;;;4.40;88.20;;;;;;5100021;28;20557;-84
2020/12/22 08:30:23;;;;;;;24.63;17.30;;;4.30;88.50;;;;;;5090273;28;20543;-86
2020/12/22 08:33:02;;;;;;;22.03;17.50;;;4.30;88.80;;;;;;5095560;28;20237;-85
2020/12/22 08:35:30;;;;;;;27.83;17.40;;;4.40;88.40;;;;;;5098851;28;20442;-86
2020/12/22 08:37:59;;;;;;;24.40;17.10;;;4.50;88.10;;;;;;5097201;28;20894;-86
2020/12/22 08:40:32;;;;;;;22.50;16.52;;;4.50;88.50;;;;;;5092660;28;20227;-86
2020/12/22 08:43:04;;;;;;;24.02;16.58;;;4.50;88.00;;;;;;5095434;28;20669;-86
2020/12/22 08:45:33;;;;;;;21.13;16.05;;;4.60;88.00;;;;;;5093187;28;20192;-86
2020/12/22 08:48:02;;;;;;;25.90;18.40;;;4.60;88.80;;;;;;5092132;28;20215;-87
2020/12/22 08:50:30;;;;;;;24.83;16.92;;;4.70;87.40;;;;;;5097117;28;20210;-83
2020/12/22 08:52:56;;;;;;;25.30;18.63;;;4.70;86.90;;;;;;5030201;28;20188;-84
2020/12/22 08:55:25;;;;;;;25.03;17.20;;;4.60;87.30;;;;;;5097407;28;20229;-84
2020/12/22 08:58:03;;;;;;;27.00;18.52;;;4.70;87.00;;;;;;5097372;28;20738;-84
2020/12/22 09:00:32;;;;;;;26.60;17.85;;;4.70;86.10;;;;;;5091880;28;20534;-84
2020/12/22 09:03:01;;;;;;;24.65;19.90;;;4.80;85.20;;;;;;5096246;28;20192;-83
2020/12/22 09:05:33;;;;;;;31.77;20.60;;;4.50;85.60;;;;;;5089624;28;20180;-87
2020/12/22 09:08:07;;;;;;;50.70;33.22;;;4.50;86.60;;;;;;5095873;28;20187;-87
2020/12/22 09:10:48;;;;;;;26.33;18.55;;;4.50;86.50;;;;;;5083274;28;20198;-84
2020/12/22 09:13:17;;;;;;;28.85;20.98;;;4.50;86.40;;;;;;5092455;28;20184;-85
2020/12/22 09:15:53;;;;;;;27.98;19.77;;;4.60;86.60;;;;;;5092376;28;20549;-84
2020/12/22 09:18:18;;;;;;;25.58;19.60;;;4.70;86.70;;;;;;5094136;28;20183;-84
2020/12/22 09:20:59;;;;;;;26.20;19.67;;;4.80;85.30;;;;;;5097541;28;20481;-85
2020/12/22 09:23:25;;;;;;;28.30;22.55;;;4.70;85.50;;;;;;5096567;28;20214;-85
2020/12/22 09:25:53;;;;;;;25.80;17.53;;;4.70;85.60;;;;;;5094172;28;20643;-87
2020/12/22 09:28:23;;;;;;;25.90;20.65;;;4.60;87.20;;;;;;5096790;28;20183;-84
2020/12/22 09:30:55;;;;;;;31.98;19.52;;;4.70;85.90;;;;;;5096858;28;20179;-85
2020/12/22 09:33:27;;;;;;;27.25;16.98;;;4.70;86.10;;;;;;5096508;28;20205;-86
2020/12/22 09:35:52;;;;;;;25.70;20.98;;;4.60;86.70;;;;;;5094019;28;20215;-86
2020/12/22 09:38:18;;;;;;;27.70;21.20;;;4.50;87.60;;;;;;5096589;28;20703;-85
2020/12/22 09:40:46;;;;;;;29.30;20.97;;;4.60;87.20;;;;;;5094773;28;20180;-86
2020/12/22 09:43:11;;;;;;;25.40;20.70;;;4.60;87.30;;;;;;5097403;28;20194;-85
2020/12/22 09:45:37;;;;;;;28.10;19.17;;;4.70;86.80;;;;;;5096004;28;20196;-86
2020/12/22 09:48:06;;;;;;;32.53;23.20;;;4.80;86.60;;;;;;5095919;28;20184;-87
2020/12/22 09:50:34;;;;;;;32.65;21.83;;;4.70;86.90;;;;;;5091774;28;20203;-86
2020/12/22 09:53:00;;;;;;;33.40;21.48;;;4.70;87.10;;;;;;5094011;28;20702;-85
2020/12/22 09:55:25;;;;;;;32.47;22.30;;;4.80;87.40;;;;;;5086669;28;20208;-86
2020/12/22 09:57:51;;;;;;;29.80;20.87;;;4.70;87.20;;;;;;5086605;28;20548;-86
2020/12/22 10:00:16;;;;;;;31.77;22.97;;;4.80;87.10;;;;;;5098088;28;20601;-86
2020/12/22 10:02:42;;;;;;;31.27;20.67;;;4.80;87.20;;;;;;5094279;28;20397;-86
2020/12/22 10:05:07;;;;;;;28.40;20.10;;;4.80;87.00;;;;;;5088269;28;20191;-86
2020/12/22 10:07:33;;;;;;;28.93;19.50;;;4.80;89.20;;;;;;5086969;28;20196;-86
2020/12/22 10:10:01;;;;;;;33.43;22.03;;;4.80;87.90;;;;;;5090421;28;20187;-86
2020/12/22 10:12:27;;;;;;;30.55;19.38;;;5.00;87.10;;;;;;5096102;28;20381;-85
2020/12/22 10:14:53;;;;;;;32.33;22.25;;;5.00;86.90;;;;;;5094540;28;20620;-86
2020/12/22 10:17:18;;;;;;;28.93;20.90;;;5.10;86.10;;;;;;5099317;28;20280;-86
2020/12/22 10:19:44;;;;;;;32.90;22.43;;;5.00;86.50;;;;;;5089332;28;20187;-86
2020/12/22 10:22:09;;;;;;;31.70;22.70;;;4.90;87.50;;;;;;5097796;28;20643;-86
2020/12/22 10:24:38;;;;;;;35.17;24.30;;;4.80;87.50;;;;;;5093709;28;20180;-85
2020/12/22 10:27:04;;;;;;;33.95;22.63;;;4.90;87.60;;;;;;5095735;28;20203;-87
2020/12/22 10:29:33;;;;;;;33.17;21.08;;;4.80;88.70;;;;;;5090715;28;20275;-87
2020/12/22 10:31:58;;;;;;;31.27;23.98;;;4.80;89.00;;;;;;5098831;28;20654;-87
2020/12/22 10:34:36;;;;;;;38.20;22.50;;;4.80;89.00;;;;;;5088049;28;20205;-86
2020/12/22 10:37:01;;;;;;;32.78;24.42;;;4.80;88.20;;;;;;5088385;28;20188;-87
2020/12/22 10:39:30;;;;;;;28.03;20.00;;;4.90;87.30;;;;;;5089831;28;20283;-86
2020/12/22 10:41:56;;;;;;;30.40;20.27;;;4.90;88.00;;;;;;5088855;28;20185;-86
2020/12/22 10:44:21;;;;;;;30.67;19.67;;;4.90;88.10;;;;;;5088348;28;20511;-86
2020/12/22 10:46:56;;;;;;;30.60;21.80;;;5.00;87.30;;;;;;5103201;28;20459;-86
2020/12/22 10:49:21;;;;;;;32.13;22.65;;;5.00;86.70;;;;;;5106111;28;20179;-86
2020/12/22 10:51:47;;;;;;;29.77;21.23;;;5.10;87.10;;;;;;5102399;28;20239;-86
2020/12/22 10:54:12;;;;;;;31.37;22.70;;;5.00;88.10;;;;;;5092293;28;20214;-87
2020/12/22 10:56:50;;;;;;;35.30;22.10;;;4.90;88.20;;;;;;5085998;28;20618;-86
2020/12/22 10:59:21;;;;;;;30.23;20.10;;;4.90;89.30;;;;;;5086777;28;20184;-86
2020/12/22 11:01:49;;;;;;;29.15;19.73;;;4.90;89.00;;;;;;5088577;28;20308;-86
2020/12/22 11:04:15;;;;;;;34.35;22.67;;;5.00;88.30;;;;;;5085448;28;20180;-86
2020/12/22 11:06:59;;;;;;;33.03;22.57;;;5.00;88.70;;;;;;5087332;28;20598;-87
2020/12/22 11:09:27;;;;;;;35.70;24.75;;;5.00;89.00;;;;;;5086957;28;20210;-87
2020/12/22 11:11:59;;;;;;;34.88;20.90;;;5.00;89.00;;;;;;5101227;28;20192;-87
2020/12/22 11:14:24;;;;;;;35.92;22.73;;;5.00;89.00;;;;;;5085121;28;20192;-86
2020/12/22 11:16:50;;;;;;;38.00;22.73;;;5.10;89.20;;;;;;5089506;28;20544;-86
2020/12/22 11:19:16;;;;;;;36.63;24.63;;;5.00;90.00;;;;;;5093943;28;20663;-86
2020/12/22 11:21:45;;;;;;;38.80;24.37;;;5.10;89.20;;;;;;5087845;28;20181;-86
2020/12/22 11:24:13;;;;;;;37.13;24.90;;;5.00;90.00;;;;;;5088588;28;20694;-86
2020/12/22 11:26:39;;;;;;;33.83;21.98;;;4.90;90.00;;;;;;5087383;28;20188;-85
2020/12/22 11:29:07;;;;;;;35.20;22.47;;;4.90;90.50;;;;;;5088464;28;20690;-86
2020/12/22 11:31:39;;;;;;;33.08;22.33;;;5.00;90.40;;;;;;5087149;28;20191;-86
2020/12/22 11:34:04;;;;;;;38.17;28.27;;;5.00;90.50;;;;;;5096304;28;20215;-86
2020/12/22 11:36:42;;;;;;;40.00;25.63;;;5.10;90.10;;;;;;5103746;28;20180;-86
2020/12/22 11:39:07;;;;;;;37.30;25.00;;;4.90;91.00;;;;;;5094030;28;20545;-86
2020/12/22 11:41:42;;;;;;;37.93;24.93;;;4.90;91.30;;;;;;5088165;28;20181;-86
2020/12/22 11:44:09;;;;;;;39.30;29.52;;;4.90;91.10;;;;;;5095548;28;20211;-87
2020/12/22 11:46:37;;;;;;;40.60;28.58;;;4.80;91.20;;;;;;5096955;28;20712;-87
2020/12/22 11:49:04;;;;;;;42.03;30.95;;;4.90;91.40;;;;;;5097550;28;20223;-86
2020/12/22 11:51:36;;;;;;;42.80;28.13;;;4.70;91.50;;;;;;5097802;28;20347;-86
2020/12/22 11:54:08;;;;;;;40.90;29.15;;;4.80;91.70;;;;;;5089512;28;20223;-86
2020/12/22 11:56:37;;;;;;;46.38;29.90;;;4.80;91.70;;;;;;5101855;28;20181;-85
2020/12/22 11:59:02;;;;;;;48.70;32.72;;;4.80;91.70;;;;;;5098101;28;20207;-86
2020/12/22 12:01:29;;;;;;;42.40;30.30;;;4.90;91.50;;;;;;5086975;28;20727;-86
2020/12/22 12:03:55;;;;;;;45.08;30.50;;;4.90;91.60;;;;;;5087118;28;20188;-86
2020/12/22 12:06:21;;;;;;;46.63;32.30;;;5.00;91.60;;;;;;5088392;28;20184;-86
2020/12/22 12:08:50;;;;;;;45.35;33.72;;;5.00;91.60;;;;;;5088954;28;20204;-86
2020/12/22 12:11:16;;;;;;;43.20;31.25;;;5.10;91.20;;;;;;5103541;28;20188;-85
2020/12/22 12:13:42;;;;;;;41.80;27.85;;;5.00;91.60;;;;;;5093323;28;20312;-86
2020/12/22 12:16:07;;;;;;;47.37;30.57;;;5.10;91.50;;;;;;5093846;28;20263;-86
2020/12/22 12:18:33;;;;;;;50.30;30.60;;;5.10;91.50;;;;;;5092042;28;20191;-87
2020/12/22 12:21:03;;;;;;;51.75;32.72;;;5.10;91.60;;;;;;5088490;28;20241;-86
2020/12/22 12:23:38;;;;;;;43.00;29.00;;;5.10;91.40;;;;;;5085902;28;20548;-86
2020/12/22 12:26:05;;;;;;;51.47;35.30;;;5.00;91.50;;;;;;5087957;28;20207;-86
2020/12/22 12:28:31;;;;;;;60.72;38.83;;;5.10;91.40;;;;;;5086122;28;20176;-86
2020/12/22 12:30:56;;;;;;;46.20;31.50;;;5.10;91.60;;;;;;5085771;28;20217;-86
2020/12/22 12:33:28;;;;;;;45.57;28.50;;;5.20;91.30;;;;;;5086237;28;20187;-86
2020/12/22 12:35:53;;;;;;;53.88;31.30;;;5.20;91.80;;;;;;5086570;28;20212;-86
2020/12/22 12:38:22;;;;;;;47.70;32.10;;;5.20;92.20;;;;;;5086948;28;20192;-84
2020/12/22 12:40:48;;;;;;;52.60;34.45;;;5.30;92.30;;;;;;5087294;28;20220;-84
2020/12/22 12:43:13;;;;;;;54.03;39.43;;;5.30;92.10;;;;;;5086018;28;20644;-84
2020/12/22 12:45:39;;;;;;;68.40;43.40;;;5.30;92.20;;;;;;5095844;28;20191;-83
2020/12/22 12:48:04;;;;;;;66.07;45.70;;;5.20;92.70;;;;;;5087596;28;20575;-85